sensor_id;sensor_type;location;lat;lon;timestamp;temperature;humidity
47773;DHT22;33534;51.028;13.716;2023-06-01T05:10:32;26.00;36.10
47773;DHT22;33534;51.028;13.716;2023-06-01T05:12:58;26.80;35.10
47773;DHT22;33534;51.028;13.716;2023-06-01T05:15:24;28.00;33.20
47773;DHT22;33534;51.028;13.716;2023-06-01T05:17:52;28.50;32.30
47773;DHT22;33534;51.028;13.716;2023-06-01T05:20:18;28.20;32.30
47773;DHT22;33534;51.028;13.716;2023-06-01T05:22:43;28.80;31.70
47773;DHT22;33534;51.028;13.716;2023-06-01T05:25:09;29.30;30.30
47773;DHT22;33534;51.028;13.716;2023-06-01T05:27:35;29.70;30.40
47773;DHT22;33534;51.028;13.716;2023-06-01T05:30:00;30.40;29.30
47773;DHT22;33534;51.028;13.716;2023-06-01T05:32:26;30.90;28.60
47773;DHT22;33534;51.028;13.716;2023-06-01T05:34:52;30.90;28.60
47773;DHT22;33534;51.028;13.716;2023-06-01T05:37:17;31.10;28.70
47773;DHT22;33534;51.028;13.716;2023-06-01T05:39:43;31.50;28.10
47773;DHT22;33534;51.028;13.716;2023-06-01T05:42:09;31.80;27.90
47773;DHT22;33534;51.028;13.716;2023-06-01T05:44:34;31.40;27.90
47773;DHT22;33534;51.028;13.716;2023-06-01T05:47:00;31.70;27.20
47773;DHT22;33534;51.028;13.716;2023-06-01T05:49:26;31.40;27.70
47773;DHT22;33534;51.028;13.716;2023-06-01T05:51:55;31.40;27.50
47773;DHT22;33534;51.028;13.716;2023-06-01T05:54:21;31.40;27.80
47773;DHT22;33534;51.028;13.716;2023-06-01T05:59:13;31.80;27.10
47773;DHT22;33534;51.028;13.716;2023-06-01T06:01:38;31.80;27.80
47773;DHT22;33534;51.028;13.716;2023-06-01T06:04:04;32.10;27.10
47773;DHT22;33534;51.028;13.716;2023-06-01T06:06:30;32.40;26.10
47773;DHT22;33534;51.028;13.716;2023-06-01T06:08:56;33.20;25.20
47773;DHT22;33534;51.028;13.716;2023-06-01T06:11:21;33.10;26.00
47773;DHT22;33534;51.028;13.716;2023-06-01T06:13:50;33.20;26.00
47773;DHT22;33534;51.028;13.716;2023-06-01T06:16:16;32.90;26.00
47773;DHT22;33534;51.028;13.716;2023-06-01T06:18:42;32.60;26.20
47773;DHT22;33534;51.028;13.716;2023-06-01T06:21:07;32.70;26.70
47773;DHT22;33534;51.028;13.716;2023-06-01T06:23:33;32.40;26.30
47773;DHT22;33534;51.028;13.716;2023-06-01T06:25:59;32.70;26.30
47773;DHT22;33534;51.028;13.716;2023-06-01T06:28:24;32.50;26.70
47773;DHT22;33534;51.028;13.716;2023-06-01T06:30:54;33.10;25.90
47773;DHT22;33534;51.028;13.716;2023-06-01T06:33:22;33.00;26.10
47773;DHT22;33534;51.028;13.716;2023-06-01T06:35:48;33.70;25.60
47773;DHT22;33534;51.028;13.716;2023-06-01T06:38:13;33.50;25.60
47773;DHT22;33534;51.028;13.716;2023-06-01T06:40:39;33.30;26.00
47773;DHT22;33534;51.028;13.716;2023-06-01T06:43:05;32.60;27.00
47773;DHT22;33534;51.028;13.716;2023-06-01T06:45:30;31.50;28.10
47773;DHT22;33534;51.028;13.716;2023-06-01T06:50:22;30.30;29.10
47773;DHT22;33534;51.028;13.716;2023-06-01T06:52:47;28.90;31.60
47773;DHT22;33534;51.028;13.716;2023-06-01T06:55:13;30.10;30.20
47773;DHT22;33534;51.028;13.716;2023-06-01T06:57:38;31.10;29.10
47773;DHT22;33534;51.028;13.716;2023-06-01T07:00:09;30.50;30.20
47773;DHT22;33534;51.028;13.716;2023-06-01T07:02:40;31.10;29.70
47773;DHT22;33534;51.028;13.716;2023-06-01T07:05:06;31.40;28.90
47773;DHT22;33534;51.028;13.716;2023-06-01T07:07:34;31.70;28.70
47773;DHT22;33534;51.028;13.716;2023-06-01T07:09:59;31.60;29.30
47773;DHT22;33534;51.028;13.716;2023-06-01T07:12:25;32.40;28.70
47773;DHT22;33534;51.028;13.716;2023-06-01T07:14:50;32.90;27.40
47773;DHT22;33534;51.028;13.716;2023-06-01T07:17:16;32.00;28.20
47773;DHT22;33534;51.028;13.716;2023-06-01T07:19:42;30.60;30.20
47773;DHT22;33534;51.028;13.716;2023-06-01T07:59:05;33.40;27.80
47773;DHT22;33534;51.028;13.716;2023-06-01T08:01:31;33.20;27.70
47773;DHT22;33534;51.028;13.716;2023-06-01T08:03:58;33.50;27.30
47773;DHT22;33534;51.028;13.716;2023-06-01T08:06:23;33.30;26.60
47773;DHT22;33534;51.028;13.716;2023-06-01T08:08:51;33.20;27.20
47773;DHT22;33534;51.028;13.716;2023-06-01T08:11:16;33.80;26.90
47773;DHT22;33534;51.028;13.716;2023-06-01T08:13:42;33.70;26.60
47773;DHT22;33534;51.028;13.716;2023-06-01T08:16:14;34.20;27.30
47773;DHT22;33534;51.028;13.716;2023-06-01T08:18:40;34.80;26.20
47773;DHT22;33534;51.028;13.716;2023-06-01T08:21:05;33.50;27.00
47773;DHT22;33534;51.028;13.716;2023-06-01T08:23:34;33.50;27.60
47773;DHT22;33534;51.028;13.716;2023-06-01T08:26:00;34.20;26.80
47773;DHT22;33534;51.028;13.716;2023-06-01T08:28:26;34.20;26.80
47773;DHT22;33534;51.028;13.716;2023-06-01T08:30:52;34.00;26.00
47773;DHT22;33534;51.028;13.716;2023-06-01T08:33:17;33.70;26.70
47773;DHT22;33534;51.028;13.716;2023-06-01T08:35:43;33.40;26.80
47773;DHT22;33534;51.028;13.716;2023-06-01T08:38:09;32.90;27.40
47773;DHT22;33534;51.028;13.716;2023-06-01T08:40:35;32.60;28.10
47773;DHT22;33534;51.028;13.716;2023-06-01T08:43:19;32.80;27.80
47773;DHT22;33534;51.028;13.716;2023-06-01T08:45:45;32.30;28.80
47773;DHT22;33534;51.028;13.716;2023-06-01T08:48:16;31.90;29.00
47773;DHT22;33534;51.028;13.716;2023-06-01T08:50:47;32.30;29.10
47773;DHT22;33534;51.028;13.716;2023-06-01T08:53:18;32.30;29.80
47773;DHT22;33534;51.028;13.716;2023-06-01T08:55:50;32.80;28.10
47773;DHT22;33534;51.028;13.716;2023-06-01T08:58:16;32.20;29.00
47773;DHT22;33534;51.028;13.716;2023-06-01T09:00:42;32.40;28.90
47773;DHT22;33534;51.028;13.716;2023-06-01T09:03:08;32.10;28.60
47773;DHT22;33534;51.028;13.716;2023-06-01T09:05:33;32.00;29.80
47773;DHT22;33534;51.028;13.716;2023-06-01T09:07:59;32.10;29.00
47773;DHT22;33534;51.028;13.716;2023-06-01T09:10:25;31.60;29.90
47773;DHT22;33534;51.028;13.716;2023-06-01T09:12:52;31.80;30.50
47773;DHT22;33534;51.028;13.716;2023-06-01T09:15:19;32.10;30.70
47773;DHT22;33534;51.028;13.716;2023-06-01T09:17:47;32.40;29.40
47773;DHT22;33534;51.028;13.716;2023-06-01T09:20:24;32.30;29.40
47773;DHT22;33534;51.028;13.716;2023-06-01T09:22:51;32.40;29.50
47773;DHT22;33534;51.028;13.716;2023-06-01T09:25:29;32.00;29.00
47773;DHT22;33534;51.028;13.716;2023-06-01T09:27:57;31.60;30.20
47773;DHT22;33534;51.028;13.716;2023-06-01T09:30:25;31.90;30.60
47773;DHT22;33534;51.028;13.716;2023-06-01T09:33:06;32.30;30.20
47773;DHT22;33534;51.028;13.716;2023-06-01T09:38:04;32.10;27.00
47773;DHT22;33534;51.028;13.716;2023-06-01T09:40:32;31.90;27.60
47773;DHT22;33534;51.028;13.716;2023-06-01T09:42:58;32.00;28.00
47773;DHT22;33534;51.028;13.716;2023-06-01T09:45:24;32.20;26.60
47773;DHT22;33534;51.028;13.716;2023-06-01T09:47:51;31.80;27.80
47773;DHT22;33534;51.028;13.716;2023-06-01T09:50:38;31.70;28.70
47773;DHT22;33534;51.028;13.716;2023-06-01T09:53:04;31.50;28.90
47773;DHT22;33534;51.028;13.716;2023-06-01T10:00:41;30.20;28.70
47773;DHT22;33534;51.028;13.716;2023-06-01T10:03:07;30.00;29.60
47773;DHT22;33534;51.028;13.716;2023-06-01T10:05:33;29.60;30.90
47773;DHT22;33534;51.028;13.716;2023-06-01T10:08:00;29.90;30.50
47773;DHT22;33534;51.028;13.716;2023-06-01T10:10:26;29.90;30.90
47773;DHT22;33534;51.028;13.716;2023-06-01T10:12:55;29.60;30.90
47773;DHT22;33534;51.028;13.716;2023-06-01T10:15:20;29.00;30.90
47773;DHT22;33534;51.028;13.716;2023-06-01T10:17:49;29.00;32.50
47773;DHT22;33534;51.028;13.716;2023-06-01T10:20:15;28.90;35.90
